METAR Data
IDs: Format: Raw Decoded Include TAF

Data at: 0359 UTC 24 Jun 2021

METAR for:KI69 (Batavia/Clermont Cnt, OH, US)
Text:KI69 240355Z AUTO 12003KT 10SM CLR 16/13 A3018 RMK AO2 T01590125
Temperature: 15.9°C ( 61°F)
Dewpoint: 12.5°C ( 54°F) [RH = 80%]
Pressure (altimeter):30.18 inches Hg (1022.1 mb)
Winds:from the ESE (120 degrees) at 3 MPH (3 knots; 1.5 m/s)
Visibility:10 or more sm (16+ km)
Ceiling:at least 12,000 feet AGL
Clouds:sky clear below 12,000 feet AGL
QC Flag:automated observation with no human augmentation